Eagle, Idaho
Current Conditions -  °F | °C
As of 3:53 AM on Friday 24 Oct 2014 (Local Time) from KBOI Reporting Station
Light Rain Light Rain  
Wind Chill: 52°   Ceiling: 8500
Heat Index: 52°   Visibility: 10mi
Dew Point: 49°   Wind: 5mph
Humidity: 89%   Direction: 130°SE
Pressure: 30.08"   Gusts: NA
Location:  43.7°N, 116.35°W
Report Text: KBOI 240953Z 13004KT 10SM -RA SCT060 OVC085 11/09 A3008 RMK AO2 SLP176 P0001 T01110094
Loading
Personal Weather Stations






























Interactive Weather Map
Tropical Storm Tracking
New forecast layout! Learn more

10-Day Weather Forecast

Advertisements
Track Severe Weather on mobile